Berwyn, New York
Current Conditions -  °F | °C
As of 12:54 PM on Monday 24 Nov 2014 (Local Time) from KSYR Reporting Station
Few Clouds Few Clouds  
Wind Chill: 71°   Ceiling: Unl
Heat Index: 71°   Visibility: 10mi
Dew Point: 51°   Wind: 22mph
Humidity: 49%   Direction: 180°S
Pressure: 29.33"   Gusts: 41mph
Location:  42.8894°N, 76.1084°W
Report Text: KSYR 241754Z 18019G36KT 10SM FEW060 22/11 A2933 RMK AO2 PK WND 20036/1745 SLP928 T02170106 10222 20156 58033
Loading
Personal Weather Stations






























Interactive Weather Map New forecast layout! Learn more

10-Day Weather Forecast

Advertisements
Track Severe Weather on mobile